createdAt,value
2023-04-21T00:01:00.060Z,99054.91
2023-04-21T00:02:02.394Z,99045.25
2023-04-21T00:03:04.751Z,99053.19
2023-04-21T00:04:07.234Z,99049.81
2023-04-21T00:05:13.961Z,99044.16
2023-04-21T00:06:22.376Z,99046.81
2023-04-21T00:07:24.736Z,99049.28
2023-04-21T00:08:26.999Z,99045.00
2023-04-21T00:09:29.200Z,99039.03
2023-04-21T00:10:31.407Z,99047.72
2023-04-21T00:11:33.593Z,99045.84
2023-04-21T00:12:36.223Z,99037.16
2023-04-21T00:13:38.843Z,99049.97
2023-04-21T00:14:41.081Z,99038.75
2023-04-21T00:15:43.387Z,99040.41
2023-04-21T00:16:46.160Z,99038.66
2023-04-21T00:17:48.307Z,99039.53
2023-04-21T00:18:50.510Z,99039.69
2023-04-21T00:19:52.727Z,99043.28
2023-04-21T00:20:55.185Z,99048.59
2023-04-21T00:21:59.014Z,99041.56
2023-04-21T00:23:01.367Z,99026.75
2023-04-21T00:24:03.782Z,99034.41
2023-04-21T00:25:06.840Z,99030.03
2023-04-21T00:26:09.125Z,99036.84
2023-04-21T00:27:13.276Z,99034.13
2023-04-21T00:28:15.651Z,99035.97
2023-04-21T00:29:18.170Z,99037.56
2023-04-21T00:30:20.669Z,99047.88
2023-04-21T00:31:22.960Z,99040.16
2023-04-21T00:32:25.425Z,99039.28
2023-04-21T00:33:27.643Z,99040.94
2023-04-21T00:34:31.207Z,99036.63
2023-04-21T00:35:33.507Z,99035.78
2023-04-21T00:36:36.426Z,99045.13
2023-04-21T00:37:38.833Z,99036.44
2023-04-21T00:38:40.995Z,99033.06
2023-04-21T00:39:44.432Z,99033.00
2023-04-21T00:40:49.309Z,99037.25
2023-04-21T00:41:51.530Z,99032.22
2023-04-21T00:42:53.963Z,99031.41
2023-04-21T00:44:07.057Z,99027.19
2023-04-21T00:45:09.875Z,99031.41
2023-04-21T00:46:12.203Z,99030.56
2023-04-21T00:47:14.652Z,99032.25
2023-04-21T00:48:17.667Z,99028.84
2023-04-21T00:49:20.131Z,99022.78
2023-04-21T00:50:24.384Z,99020.22
2023-04-21T00:51:28.287Z,99016.69
2023-04-21T00:52:31.098Z,99014.06
2023-04-21T00:53:33.370Z,99019.19
2023-04-21T00:54:36.236Z,99021.78
2023-04-21T00:55:38.691Z,99020.09
2023-04-21T00:56:41.037Z,99026.00
2023-04-21T00:57:43.749Z,99017.38
2023-04-21T00:58:46.197Z,99024.34
2023-04-21T00:59:50.132Z,99022.50
2023-04-21T01:00:53.554Z,99008.63
2023-04-21T01:01:57.260Z,99014.72
2023-04-21T01:03:01.591Z,99016.41
2023-04-21T01:04:05.438Z,99003.41
2023-04-21T01:05:09.056Z,99008.56
2023-04-21T01:06:13.499Z,99010.25
2023-04-21T01:07:15.797Z,99011.81
2023-04-21T01:08:17.983Z,99007.50
2023-04-21T01:09:21.405Z,98998.00
2023-04-21T01:10:23.874Z,99004.94
2023-04-21T01:11:27.305Z,99002.28
2023-04-21T01:12:29.645Z,99007.44
2023-04-21T01:13:31.796Z,99007.41
2023-04-21T01:14:34.304Z,99007.38
2023-04-21T01:15:36.453Z,99003.13
2023-04-21T01:16:39.746Z,98998.81
2023-04-21T01:17:42.925Z,99006.53
2023-04-21T01:18:46.121Z,98994.47
2023-04-21T01:19:49.087Z,99005.72
2023-04-21T01:20:51.336Z,99008.31
2023-04-21T01:22:01.959Z,99008.25
2023-04-21T01:23:05.842Z,99002.22
2023-04-21T01:24:08.085Z,99013.97
2023-04-21T01:25:10.719Z,99006.47
2023-04-21T01:26:12.935Z,99011.06
2023-04-21T01:27:20.378Z,99016.13
2023-04-21T01:28:23.671Z,98998.63
2023-04-21T01:29:25.834Z,99004.66
2023-04-21T01:30:29.434Z,99002.78
2023-04-21T01:31:31.675Z,99007.97
2023-04-21T01:32:34.108Z,99013.25
2023-04-21T01:33:36.720Z,99013.28
2023-04-21T01:34:40.794Z,99015.16
2023-04-21T01:35:43.328Z,99010.81
2023-04-21T01:36:45.639Z,99007.50
2023-04-21T01:37:47.798Z,99017.09
2023-04-21T01:38:49.969Z,99011.88
2023-04-21T01:39:54.578Z,99013.69
2023-04-21T01:40:56.875Z,99003.16
2023-04-21T01:41:59.103Z,99011.84
2023-04-21T01:43:01.447Z,99015.06
2023-04-21T01:44:03.859Z,99007.38
2023-04-21T01:45:07.515Z,99016.06
2023-04-21T01:46:10.515Z,99015.25
2023-04-21T01:47:13.850Z,99012.59
2023-04-21T01:48:16.128Z,99015.13
2023-04-21T01:49:18.849Z,99011.78
2023-04-21T01:50:21.226Z,99016.69
2023-04-21T01:51:23.500Z,99016.84
2023-04-21T01:52:26.442Z,99005.22
2023-04-21T01:53:29.952Z,99022.31
2023-04-21T01:54:32.145Z,99018.84
2023-04-21T01:55:34.394Z,99017.53
2023-04-21T01:56:36.588Z,99019.38
2023-04-21T01:57:38.819Z,99010.50
2023-04-21T01:58:40.989Z,99019.03
2023-04-21T01:59:43.739Z,99012.38
2023-04-21T02:02:08.832Z,99014.72
2023-04-21T02:03:14.056Z,99024.53
2023-04-21T02:04:16.531Z,99016.84
2023-04-21T02:05:19.085Z,99021.16
2023-04-21T02:06:21.381Z,99024.69
2023-04-21T02:07:23.668Z,99033.34
2023-04-21T02:08:28.629Z,99029.81
2023-04-21T02:09:31.615Z,99031.34
2023-04-21T02:10:33.799Z,99034.66
2023-04-21T02:11:36.003Z,99023.34
2023-04-21T02:12:38.478Z,99026.16
2023-04-21T02:13:40.694Z,99021.94
2023-04-21T02:14:43.084Z,99022.81
2023-04-21T02:15:45.335Z,99024.44
2023-04-21T02:16:48.395Z,99020.78
2023-04-21T02:17:50.689Z,99028.41
2023-04-21T02:18:54.051Z,99023.13
2023-04-21T02:19:56.346Z,99026.63
2023-04-21T02:20:58.635Z,99029.22
2023-04-21T02:22:02.294Z,99036.19
2023-04-21T02:23:04.609Z,99035.34
2023-04-21T02:24:06.960Z,99041.44
2023-04-21T02:25:09.455Z,99038.47
2023-04-21T02:26:11.645Z,99036.44
2023-04-21T02:27:13.932Z,99032.97
2023-04-21T02:28:16.226Z,99032.13
2023-04-21T02:29:18.753Z,99042.47
2023-04-21T02:30:21.211Z,99041.44
2023-04-21T02:31:23.513Z,99044.03
2023-04-21T02:32:26.454Z,99042.16
2023-04-21T02:33:28.889Z,99046.50
2023-04-21T02:34:31.307Z,99041.19
2023-04-21T02:35:34.518Z,99047.34
2023-04-21T02:36:36.720Z,99044.66
2023-04-21T02:37:39.043Z,99047.22
2023-04-21T02:38:41.225Z,99040.38
2023-04-21T02:39:45.783Z,99049.72
2023-04-21T02:40:47.999Z,99049.72
2023-04-21T02:41:50.179Z,99048.88
2023-04-21T02:42:52.449Z,99050.41
2023-04-21T02:43:54.701Z,99043.53
2023-04-21T02:44:57.743Z,99048.66
2023-04-21T02:46:05.659Z,99054.63
2023-04-21T02:47:09.370Z,99045.25
2023-04-21T02:48:11.916Z,99040.78
2023-04-21T02:49:14.419Z,99051.13
2023-04-21T02:50:16.669Z,99042.44
2023-04-21T02:51:18.960Z,99044.94
2023-04-21T02:52:21.176Z,99044.09
2023-04-21T02:53:23.565Z,99043.22
2023-04-21T02:54:27.504Z,99043.13
2023-04-21T02:55:30.039Z,99047.44
2023-04-21T02:56:34.374Z,99050.25
2023-04-21T02:57:36.718Z,99042.41
2023-04-21T02:58:39.676Z,99046.88
2023-04-21T02:59:41.824Z,99046.06
2023-04-21T03:00:44.310Z,99041.84
2023-04-21T03:01:47.865Z,99041.03
2023-04-21T03:02:50.179Z,99034.31
2023-04-21T03:03:52.703Z,99032.44
2023-04-21T03:04:56.576Z,99031.66
2023-04-21T03:06:01.293Z,99038.50
2023-04-21T03:07:03.514Z,99036.97
2023-04-21T03:08:05.815Z,99034.59
2023-04-21T03:09:10.568Z,99025.16
2023-04-21T03:10:12.883Z,99027.75
2023-04-21T03:11:15.154Z,99026.06
2023-04-21T03:12:17.373Z,99026.06
2023-04-21T03:13:20.453Z,99032.34
2023-04-21T03:14:25.320Z,99022.69
2023-04-21T03:15:27.625Z,99021.78
2023-04-21T03:16:29.831Z,99020.06
2023-04-21T03:17:33.326Z,99029.47
2023-04-21T03:18:36.377Z,99021.63
2023-04-21T03:19:38.781Z,99022.59
2023-04-21T03:20:41.035Z,99026.13
2023-04-21T03:21:44.296Z,99021.84
2023-04-21T03:22:46.478Z,99018.34
2023-04-21T03:23:48.785Z,99012.44
2023-04-21T03:24:50.924Z,99016.88
2023-04-21T03:25:53.131Z,99023.72
2023-04-21T03:26:56.933Z,99022.94
2023-04-21T03:27:59.378Z,99017.09
2023-04-21T03:29:01.825Z,99013.59
2023-04-21T03:30:05.328Z,99014.47
2023-04-21T03:31:07.518Z,99030.06
2023-04-21T03:32:09.757Z,99024.13
2023-04-21T03:33:12.382Z,99029.44
2023-04-21T03:34:14.789Z,99020.84
2023-04-21T03:35:17.508Z,99014.00
2023-04-21T03:36:19.663Z,99018.34
2023-04-21T03:37:21.955Z,99020.13
2023-04-21T03:38:24.586Z,99016.59
2023-04-21T03:39:26.928Z,99009.66
2023-04-21T03:40:29.975Z,99004.16
2023-04-21T03:41:36.174Z,99008.34
2023-04-21T03:42:39.405Z,99009.94
2023-04-21T03:43:41.634Z,99004.69
2023-04-21T03:44:43.833Z,99004.59
2023-04-21T03:45:46.207Z,99008.09
2023-04-21T03:46:48.551Z,99005.28
2023-04-21T03:47:55.177Z,98999.19
2023-04-21T03:48:57.507Z,98998.38
2023-04-21T03:49:59.715Z,99004.41
2023-04-21T03:51:01.926Z,98999.31
2023-04-21T03:52:04.283Z,99003.81
2023-04-21T03:53:06.505Z,99007.19
2023-04-21T03:54:08.742Z,99005.38
2023-04-21T03:55:11.707Z,99006.19
2023-04-21T03:56:13.906Z,99004.50
2023-04-21T03:57:16.640Z,99005.47
2023-04-21T03:58:19.229Z,99002.97
2023-04-21T03:59:21.675Z,99005.63
2023-04-21T04:00:24.417Z,99010.84
2023-04-21T04:01:26.692Z,99008.16
2023-04-21T04:02:29.487Z,99009.03
2023-04-21T04:03:31.859Z,99003.81
2023-04-21T04:04:34.691Z,99005.56
2023-04-21T04:05:37.237Z,98998.69
2023-04-21T04:06:39.413Z,98995.19
2023-04-21T04:07:41.591Z,98991.66
2023-04-21T04:08:43.718Z,98988.28
2023-04-21T04:09:45.944Z,98996.97
2023-04-21T04:10:48.311Z,98990.94
2023-04-21T04:11:50.654Z,98984.00
2023-04-21T04:12:52.845Z,98982.19
2023-04-21T04:13:55.079Z,98987.41
2023-04-21T04:14:57.396Z,98981.44
2023-04-21T04:15:59.770Z,98981.34
2023-04-21T04:17:01.974Z,98980.47
2023-04-21T04:18:04.221Z,98977.09
2023-04-21T04:19:06.499Z,98983.38
2023-04-21T04:20:09.364Z,98984.47
2023-04-21T04:21:11.608Z,98984.50
2023-04-21T04:22:13.759Z,98981.28
2023-04-21T04:23:16.029Z,98978.59
2023-04-21T04:24:19.395Z,98975.09
2023-04-21T04:25:21.677Z,98987.28
2023-04-21T04:26:25.154Z,98983.91
2023-04-21T04:27:28.085Z,98995.41
2023-04-21T04:28:30.713Z,99004.06
2023-04-21T04:29:32.905Z,99003.94
2023-04-21T04:30:35.354Z,99007.34
2023-04-21T04:31:37.909Z,98993.44
2023-04-21T04:32:40.336Z,98986.38
2023-04-21T04:33:42.846Z,98984.72
2023-04-21T04:34:45.061Z,98990.81
2023-04-21T04:35:48.313Z,98996.00
2023-04-21T04:36:51.135Z,98992.59
2023-04-21T04:37:54.669Z,98996.88
2023-04-21T04:38:58.332Z,98991.59
2023-04-21T04:40:00.605Z,99002.16
2023-04-21T04:41:03.409Z,99000.47
2023-04-21T04:42:11.709Z,99003.03
2023-04-21T04:43:15.011Z,99001.50
2023-04-21T04:44:18.132Z,98998.91
2023-04-21T04:45:22.107Z,98999.00
2023-04-21T04:46:24.719Z,98995.50
2023-04-21T04:47:27.058Z,99001.41
2023-04-21T04:48:29.676Z,99008.28
2023-04-21T04:49:31.988Z,99009.13
2023-04-21T04:50:34.126Z,99002.91
2023-04-21T04:51:36.505Z,99006.19
2023-04-21T04:52:39.059Z,99000.84
2023-04-21T04:53:41.271Z,99000.72
2023-04-21T04:54:43.566Z,99004.75
2023-04-21T04:55:47.175Z,98999.38
2023-04-21T04:56:49.380Z,99002.25
2023-04-21T04:57:51.639Z,99000.59
2023-04-21T04:58:53.830Z,99000.38
2023-04-21T04:59:56.224Z,98996.88
2023-04-21T05:00:58.536Z,98998.59
2023-04-21T05:02:00.900Z,99003.97
2023-04-21T05:03:03.346Z,99001.53
2023-04-21T05:04:05.963Z,98993.88
2023-04-21T05:05:08.541Z,98997.41
2023-04-21T05:06:10.974Z,99008.69
2023-04-21T05:07:13.182Z,98999.28
2023-04-21T05:08:17.822Z,99007.28
2023-04-21T05:09:20.649Z,98999.53
2023-04-21T05:10:23.523Z,99004.66
2023-04-21T05:11:25.779Z,99003.78
2023-04-21T05:12:28.133Z,99005.47
2023-04-21T05:13:30.370Z,99005.41
2023-04-21T05:14:32.522Z,99010.59
2023-04-21T05:15:34.641Z,99009.63
2023-04-21T05:16:37.100Z,99016.28
2023-04-21T05:17:39.341Z,99011.09
2023-04-21T05:18:41.500Z,99012.66
2023-04-21T05:19:43.739Z,99003.81
2023-04-21T05:20:45.902Z,99006.31
2023-04-21T05:21:48.214Z,99004.75
2023-04-21T05:22:50.511Z,99004.97
2023-04-21T05:23:53.176Z,99005.81
2023-04-21T05:24:55.518Z,99011.72
2023-04-21T05:25:57.703Z,99014.06
2023-04-21T05:26:59.894Z,99007.81
2023-04-21T05:28:02.105Z,99024.91
2023-04-21T05:29:04.272Z,99015.22
2023-04-21T05:30:07.034Z,99015.91
2023-04-21T05:31:09.230Z,99025.13
2023-04-21T05:32:12.393Z,99028.25
2023-04-21T05:33:14.777Z,99028.22
2023-04-21T05:34:17.054Z,99024.66
2023-04-21T05:35:19.430Z,99023.03
2023-04-21T05:36:21.820Z,99022.19
2023-04-21T05:37:23.981Z,99026.44
2023-04-21T05:38:27.402Z,99030.78
2023-04-21T05:39:29.835Z,99029.78
2023-04-21T05:40:32.026Z,99030.03
2023-04-21T05:41:34.188Z,99026.31
2023-04-21T05:42:36.438Z,99033.84
2023-04-21T05:43:38.582Z,99026.72
2023-04-21T05:44:40.781Z,99025.53
2023-04-21T05:45:42.948Z,99030.03
2023-04-21T05:46:45.482Z,99030.16
2023-04-21T05:47:47.713Z,99033.53
2023-04-21T05:48:50.096Z,99031.84
2023-04-21T05:49:54.026Z,99039.63
2023-04-21T05:50:56.456Z,99042.19
2023-04-21T05:51:58.693Z,99041.69
2023-04-21T05:53:01.121Z,99039.50
2023-04-21T05:54:03.522Z,99035.81
2023-04-21T05:55:06.356Z,99039.56
2023-04-21T05:56:09.167Z,99030.72
2023-04-21T05:57:11.430Z,99039.88
2023-04-21T05:58:13.654Z,99027.88
2023-04-21T05:59:16.123Z,99029.63
2023-04-21T06:00:18.457Z,99021.69
2023-04-21T06:01:20.638Z,99012.91
2023-04-21T06:02:22.935Z,99014.03
2023-04-21T06:03:25.421Z,99009.19
2023-04-21T06:04:28.472Z,99009.81
2023-04-21T06:05:31.011Z,99008.75
2023-04-21T06:06:33.298Z,99021.41
2023-04-21T06:07:37.192Z,99011.25
2023-04-21T06:08:39.413Z,99021.66
2023-04-21T06:09:41.564Z,99027.03
2023-04-21T06:10:43.699Z,99036.72
2023-04-21T06:11:45.919Z,99027.34
2023-04-21T06:12:48.106Z,99031.91
2023-04-21T06:13:50.785Z,99034.50
2023-04-21T06:14:57.382Z,99038.69
2023-04-21T06:15:59.687Z,99034.75
2023-04-21T06:17:01.907Z,99026.75
2023-04-21T06:18:04.315Z,99029.59
2023-04-21T06:19:06.517Z,99026.03
2023-04-21T06:20:09.309Z,99023.19
2023-04-21T06:21:11.616Z,99017.47
2023-04-21T06:22:13.849Z,99017.19
2023-04-21T06:23:16.080Z,99020.63
2023-04-21T06:24:24.974Z,99022.41
2023-04-21T06:25:27.270Z,99024.75
2023-04-21T06:26:30.438Z,99004.69
2023-04-21T06:27:32.741Z,99008.06
2023-04-21T06:28:36.196Z,99017.13
2023-04-21T06:29:38.634Z,99020.06
2023-04-21T06:30:40.813Z,99012.59
2023-04-21T06:31:43.041Z,99022.78
2023-04-21T06:32:46.147Z,99023.78
2023-04-21T06:33:48.364Z,99026.47
2023-04-21T06:34:50.710Z,99025.28
2023-04-21T06:35:53.546Z,99026.66
2023-04-21T06:36:55.814Z,99024.16
2023-04-21T06:37:57.964Z,99018.91
2023-04-21T06:39:00.375Z,99019.16
2023-04-21T06:40:02.688Z,99023.00
2023-04-21T06:41:06.456Z,99024.28
2023-04-21T06:42:08.725Z,99010.84
2023-04-21T06:43:17.673Z,99014.31
2023-04-21T06:44:20.034Z,99011.63
2023-04-21T06:45:22.515Z,99012.81
2023-04-21T06:46:24.725Z,99009.59
2023-04-21T06:47:27.287Z,99006.25
2023-04-21T06:48:30.184Z,99004.53
2023-04-21T06:49:34.144Z,99002.22
2023-04-21T06:50:36.349Z,99003.72
2023-04-21T06:51:38.630Z,99003.06
2023-04-21T06:52:40.761Z,98993.63
2023-04-21T06:53:42.916Z,99002.66
2023-04-21T06:54:45.290Z,99002.19
2023-04-21T06:55:48.527Z,98996.22
2023-04-21T06:56:51.289Z,98995.00
2023-04-21T06:57:53.468Z,98998.16
2023-04-21T06:58:56.569Z,98997.69
2023-04-21T06:59:58.823Z,98995.34
2023-04-21T07:01:01.828Z,99002.53
2023-04-21T07:02:04.105Z,99001.94
2023-04-21T07:03:06.585Z,99002.66
2023-04-21T07:04:08.961Z,99003.22
2023-04-21T07:05:11.382Z,99003.22
2023-04-21T07:06:13.648Z,99009.75
2023-04-21T07:07:15.898Z,99000.72
2023-04-21T07:08:18.195Z,99011.47
2023-04-21T07:09:20.624Z,99005.09
2023-04-21T07:10:23.079Z,99016.66
2023-04-21T07:11:25.457Z,99008.03
2023-04-21T07:12:27.598Z,99005.91
2023-04-21T07:13:30.412Z,98992.81
2023-04-21T07:14:32.650Z,98995.63
2023-04-21T07:15:34.871Z,98998.84
2023-04-21T07:16:37.017Z,99001.28
2023-04-21T07:17:39.240Z,99000.16
2023-04-21T07:18:41.879Z,98996.81
2023-04-21T07:19:44.171Z,98991.31
2023-04-21T07:20:46.345Z,98989.56
2023-04-21T07:21:48.523Z,98988.56
2023-04-21T07:22:50.753Z,98986.69
2023-04-21T07:23:52.862Z,98979.38
2023-04-21T07:24:55.109Z,98983.78
2023-04-21T07:25:57.317Z,98980.03
2023-04-21T07:26:59.526Z,98985.06
2023-04-21T07:28:03.286Z,98976.78
2023-04-21T07:29:06.115Z,98976.53
2023-04-21T07:30:10.948Z,98984.69
2023-04-21T07:31:13.331Z,98981.41
2023-04-21T07:32:15.765Z,98979.13
2023-04-21T07:33:18.050Z,98974.97
2023-04-21T07:34:20.480Z,98976.13
2023-04-21T07:35:22.942Z,98980.13
2023-04-21T07:36:26.219Z,98980.84
2023-04-21T07:37:28.873Z,98982.94
2023-04-21T07:38:31.315Z,98971.38
2023-04-21T07:39:36.705Z,98976.19
2023-04-21T07:40:39.091Z,98975.97
2023-04-21T07:41:41.462Z,98984.16
2023-04-21T07:42:43.849Z,98982.47
2023-04-21T07:43:46.166Z,98977.69
2023-04-21T07:44:48.966Z,98980.50
2023-04-21T07:45:52.468Z,98983.56
2023-04-21T07:46:55.097Z,98983.38
2023-04-21T07:47:57.444Z,98982.63
2023-04-21T07:49:02.751Z,98984.66
2023-04-21T07:50:06.818Z,98985.75
2023-04-21T07:51:09.475Z,98987.41
2023-04-21T07:52:11.939Z,98985.66
2023-04-21T07:53:15.353Z,98985.03
2023-04-21T07:54:18.995Z,98981.84
2023-04-21T07:55:21.649Z,98981.38
2023-04-21T07:56:24.133Z,98974.16
2023-04-21T07:57:26.597Z,98976.63
2023-04-21T07:58:28.943Z,98982.81
2023-04-21T07:59:31.234Z,98974.78
2023-04-21T08:00:33.706Z,98972.13
2023-04-21T08:01:35.967Z,98968.09
2023-04-21T08:02:38.881Z,98965.91
2023-04-21T08:03:41.785Z,98964.91
2023-04-21T08:04:44.559Z,98975.75
2023-04-21T08:05:47.797Z,98971.63
2023-04-21T08:06:50.635Z,98968.13
2023-04-21T08:07:53.175Z,98970.44
2023-04-21T08:08:56.187Z,98969.53
2023-04-21T08:09:58.815Z,98966.03
2023-04-21T08:11:01.421Z,98970.34
2023-04-21T08:12:04.175Z,98967.97
2023-04-21T08:13:06.815Z,98965.41
2023-04-21T08:14:11.767Z,98963.75
2023-04-21T08:15:14.322Z,98969.94
2023-04-21T08:16:16.723Z,98962.19
2023-04-21T08:17:19.022Z,98967.13
2023-04-21T08:18:22.725Z,98963.94
2023-04-21T08:19:25.530Z,98950.22
2023-04-21T08:20:28.055Z,98954.63
2023-04-21T08:21:32.748Z,98955.06
2023-04-21T08:22:36.522Z,98964.00
2023-04-21T08:23:39.020Z,98956.97
2023-04-21T08:24:41.354Z,98954.34
2023-04-21T08:25:43.689Z,98958.13
2023-04-21T08:26:46.130Z,98953.63
2023-04-21T08:27:48.428Z,98942.25
2023-04-21T08:28:52.086Z,98942.31
2023-04-21T08:29:54.635Z,98943.41
2023-04-21T08:30:57.014Z,98951.84
2023-04-21T08:31:59.724Z,98944.34
2023-04-21T08:33:02.222Z,98936.34
2023-04-21T08:34:04.714Z,98942.78
2023-04-21T08:35:07.460Z,98937.78
2023-04-21T08:36:21.911Z,98944.97
2023-04-21T08:37:31.160Z,98935.91
2023-04-21T08:38:33.466Z,98927.66
2023-04-21T08:39:36.101Z,98942.91
2023-04-21T08:40:39.064Z,98928.28
2023-04-21T08:41:42.033Z,98928.16
2023-04-21T08:42:45.584Z,98939.16
2023-04-21T08:43:47.814Z,98933.16
2023-04-21T08:44:50.106Z,98941.09
2023-04-21T08:45:54.311Z,98928.75
2023-04-21T08:46:59.669Z,98936.59
2023-04-21T08:48:04.712Z,98933.44
2023-04-21T08:49:09.528Z,98931.94
2023-04-21T08:50:13.728Z,98935.16
2023-04-21T08:51:22.376Z,98937.09
2023-04-21T08:52:24.879Z,98933.88
2023-04-21T08:53:27.503Z,98939.84
2023-04-21T08:54:30.249Z,98935.19
2023-04-21T08:55:33.029Z,98931.53
2023-04-21T08:56:35.221Z,98931.13
2023-04-21T08:57:37.478Z,98934.50
2023-04-21T08:58:39.826Z,98931.06
2023-04-21T08:59:42.052Z,98929.16
2023-04-21T09:00:44.288Z,98930.06
2023-04-21T09:02:16.298Z,98920.25
2023-04-21T09:03:26.550Z,98915.22
2023-04-21T09:04:30.763Z,98924.38
2023-04-21T09:05:34.970Z,98919.78
2023-04-21T09:06:46.282Z,98923.56
2023-04-21T09:07:48.912Z,98934.56
2023-04-21T09:08:57.700Z,98927.91
2023-04-21T09:10:00.691Z,98925.94
2023-04-21T09:11:03.126Z,98924.44
2023-04-21T09:12:05.415Z,98919.22
2023-04-21T09:13:08.828Z,98924.03
2023-04-21T09:14:11.344Z,98922.63
2023-04-21T09:15:13.548Z,98924.69
2023-04-21T09:16:18.403Z,98914.59
2023-04-21T09:17:27.150Z,98909.91
2023-04-21T09:18:35.832Z,98911.88
2023-04-21T09:19:38.072Z,98912.47
2023-04-21T09:20:41.071Z,98909.63
2023-04-21T09:21:44.108Z,98911.00
2023-04-21T09:22:49.439Z,98901.69
2023-04-21T09:23:53.505Z,98899.97
2023-04-21T09:25:00.248Z,98905.34
2023-04-21T09:26:03.131Z,98907.72
2023-04-21T09:27:05.511Z,98912.63
2023-04-21T09:28:13.451Z,98904.88
2023-04-21T09:29:15.730Z,98899.78
2023-04-21T09:30:20.784Z,98907.31
2023-04-21T09:31:24.917Z,98905.84
2023-04-21T09:32:27.570Z,98901.50
2023-04-21T09:33:42.481Z,98908.78
2023-04-21T09:34:48.161Z,98899.53
2023-04-21T09:35:50.310Z,98902.63
2023-04-21T09:37:04.348Z,98898.38
2023-04-21T09:38:11.173Z,98900.00
2023-04-21T09:39:34.360Z,98903.75
2023-04-21T09:40:35.963Z,98907.63
2023-04-21T09:41:38.222Z,98905.19
2023-04-21T09:42:43.123Z,98901.19
2023-04-21T09:45:39.556Z,98909.25
2023-04-21T09:46:44.372Z,98909.16
2023-04-21T09:47:54.499Z,98911.09
2023-04-21T09:48:59.346Z,98911.00
2023-04-21T09:50:02.767Z,98901.22
2023-04-21T09:52:44.090Z,98909.97
2023-04-21T09:53:49.872Z,98912.69
2023-04-21T09:55:00.352Z,98911.44
2023-04-21T09:56:03.213Z,98899.81
2023-04-21T09:57:10.377Z,98911.34
2023-04-21T09:58:15.570Z,98906.59
2023-04-21T09:59:24.526Z,98902.41
2023-04-21T10:00:31.273Z,98902.22
2023-04-21T10:01:35.630Z,98900.09
2023-04-21T10:02:47.937Z,98896.53
2023-04-21T10:03:51.306Z,98893.28
2023-04-21T10:04:54.477Z,98894.69
2023-04-21T10:05:56.930Z,98898.22
2023-04-21T10:07:02.156Z,98888.00
2023-04-21T10:08:06.916Z,98894.59
2023-04-21T10:09:10.812Z,98892.81
2023-04-21T10:10:35.452Z,98895.19
2023-04-21T10:11:38.176Z,98894.84
2023-04-21T10:12:40.438Z,98887.94
2023-04-21T10:13:42.856Z,98891.56
2023-04-21T10:14:45.105Z,98896.50
2023-04-21T10:15:47.484Z,98895.06
2023-04-21T10:17:04.298Z,98892.88
2023-04-21T10:18:21.663Z,98886.94
2023-04-21T10:19:25.505Z,98879.06
2023-04-21T10:20:29.453Z,98874.06
2023-04-21T10:21:36.513Z,98874.00
2023-04-21T10:22:39.647Z,98875.03
2023-04-21T10:23:43.973Z,98884.56
2023-04-21T10:24:47.254Z,98879.50
2023-04-21T10:25:49.515Z,98873.97
2023-04-21T10:26:54.579Z,98873.13
2023-04-21T10:27:57.485Z,98872.63
2023-04-21T10:29:00.585Z,98880.06
2023-04-21T10:30:23.120Z,98879.81
2023-04-21T10:31:31.033Z,98871.50
2023-04-21T10:32:43.458Z,98867.19
2023-04-21T10:34:04.056Z,98869.53
2023-04-21T10:35:09.848Z,98861.22
2023-04-21T10:36:12.266Z,98862.97
2023-04-21T10:37:17.311Z,98853.00
2023-04-21T10:38:34.422Z,98855.19
2023-04-21T10:39:45.430Z,98854.59
2023-04-21T10:40:47.602Z,98851.84
2023-04-21T10:41:51.234Z,98860.09
2023-04-21T10:42:53.728Z,98860.59
2023-04-21T10:44:13.670Z,98859.94
2023-04-21T10:45:16.295Z,98851.88
2023-04-21T10:46:40.318Z,98856.84
2023-04-21T10:47:48.766Z,98853.94
2023-04-21T10:48:53.814Z,98847.50
2023-04-21T10:49:57.962Z,98846.69
2023-04-21T10:51:00.678Z,98840.50
2023-04-21T10:52:04.154Z,98841.06
2023-04-21T10:53:13.352Z,98847.47
2023-04-21T10:54:15.600Z,98849.53
2023-04-21T10:55:17.894Z,98847.22
2023-04-21T10:56:21.824Z,98852.03
2023-04-21T10:57:24.185Z,98842.22
2023-04-21T10:58:26.910Z,98843.75
2023-04-21T10:59:29.279Z,98833.09
2023-04-21T11:00:32.195Z,98838.31
2023-04-21T11:01:34.625Z,98835.00
2023-04-21T11:02:39.765Z,98835.78
2023-04-21T11:03:44.260Z,98827.19
2023-04-21T11:04:51.781Z,98827.84
2023-04-21T11:05:54.545Z,98829.91
2023-04-21T11:07:13.359Z,98838.38
2023-04-21T11:08:16.006Z,98832.66
2023-04-21T11:09:18.331Z,98825.72
2023-04-21T11:10:20.617Z,98821.00
2023-04-21T11:11:24.278Z,98816.81
2023-04-21T11:12:35.067Z,98820.16
2023-04-21T11:13:37.436Z,98826.91
2023-04-21T11:14:42.163Z,98812.25
2023-04-21T11:16:05.938Z,98818.03
2023-04-21T11:17:12.747Z,98819.84
2023-04-21T11:18:15.045Z,98807.22
2023-04-21T11:19:17.665Z,98824.88
2023-04-21T11:20:19.940Z,98815.31
2023-04-21T11:21:24.456Z,98824.13
2023-04-21T11:22:26.885Z,98816.34
2023-04-21T11:23:29.083Z,98811.53
2023-04-21T11:24:32.163Z,98815.16
2023-04-21T11:25:34.480Z,98805.50
2023-04-21T11:26:39.979Z,98810.53
2023-04-21T11:27:42.272Z,98812.94
2023-04-21T11:28:47.732Z,98812.69
2023-04-21T11:29:51.051Z,98804.16
2023-04-21T11:30:53.292Z,98807.53
2023-04-21T11:31:56.196Z,98813.44
2023-04-21T11:32:58.473Z,98828.56
2023-04-21T11:34:01.080Z,98813.16
2023-04-21T11:35:03.851Z,98817.84
2023-04-21T11:36:07.480Z,98814.75
2023-04-21T11:37:14.444Z,98812.94
2023-04-21T11:38:18.582Z,98810.94
2023-04-21T11:39:22.225Z,98811.38
2023-04-21T11:40:24.653Z,98812.47
2023-04-21T11:41:26.808Z,98809.19
2023-04-21T11:42:28.975Z,98816.88
2023-04-21T11:43:31.423Z,98810.28
2023-04-21T11:44:36.329Z,98823.16
2023-04-21T11:45:40.773Z,98799.97
2023-04-21T11:46:46.853Z,98797.06
2023-04-21T11:47:49.442Z,98813.63
2023-04-21T11:49:06.238Z,98810.00
2023-04-21T11:50:09.645Z,98808.63
2023-04-21T11:51:21.369Z,98803.03
2023-04-21T11:52:25.679Z,98808.50
2023-04-21T11:53:29.530Z,98806.94
2023-04-21T11:54:31.756Z,98806.06
2023-04-21T11:55:34.669Z,98812.09
2023-04-21T11:56:47.229Z,98808.84
2023-04-21T11:57:51.077Z,98807.97
2023-04-21T11:58:53.478Z,98802.91
2023-04-21T11:59:59.487Z,98809.13
2023-04-21T12:01:08.952Z,98805.16
2023-04-21T12:02:20.949Z,98815.94
2023-04-21T12:03:23.797Z,98821.22
2023-04-21T12:04:26.238Z,98803.56
2023-04-21T12:05:36.242Z,98808.38
2023-04-21T12:06:38.592Z,98807.38
2023-04-21T12:07:45.021Z,98806.28
2023-04-21T12:08:47.253Z,98801.66
2023-04-21T12:09:53.067Z,98797.72
2023-04-21T12:10:55.281Z,98803.34
2023-04-21T12:11:58.943Z,98797.22
2023-04-21T12:13:01.241Z,98804.09
2023-04-21T12:14:03.521Z,98800.47
2023-04-21T12:15:09.871Z,98806.94
2023-04-21T12:16:12.879Z,98797.66
2023-04-21T12:17:15.162Z,98796.28
2023-04-21T12:18:17.337Z,98791.47
2023-04-21T12:19:49.345Z,98795.88
2023-04-21T12:20:52.908Z,98792.25
2023-04-21T12:21:58.839Z,98786.84
2023-04-21T12:23:01.276Z,98795.16
2023-04-21T12:24:04.203Z,98796.38
2023-04-21T12:25:06.771Z,98785.34
2023-04-21T12:26:09.063Z,98770.38
2023-04-21T12:27:11.992Z,98777.97
2023-04-21T12:28:17.135Z,98792.94
2023-04-21T12:29:19.390Z,98773.78
2023-04-21T12:30:21.983Z,98779.22
2023-04-21T12:31:24.277Z,98783.19
2023-04-21T12:32:26.711Z,98771.00